createdAt,value
2023-05-10T00:01:26.739Z,15.03
2023-05-10T00:03:54.759Z,15.03
2023-05-10T00:06:24.251Z,16.20
2023-05-10T00:08:52.579Z,16.08
2023-05-10T00:11:22.993Z,15.77
2023-05-10T00:13:51.673Z,16.93
2023-05-10T00:16:20.160Z,18.13
2023-05-10T00:18:48.491Z,17.57
2023-05-10T00:21:16.852Z,17.90
2023-05-10T00:23:46.209Z,20.83
2023-05-10T00:26:14.634Z,17.23
2023-05-10T00:28:42.993Z,20.57
2023-05-10T00:31:11.417Z,17.80
2023-05-10T00:33:39.814Z,17.67
2023-05-10T00:36:09.276Z,16.90
2023-05-10T00:38:37.377Z,17.27
2023-05-10T00:41:07.628Z,16.83
2023-05-10T00:43:36.081Z,17.87
2023-05-10T00:46:04.475Z,19.50
2023-05-10T00:48:33.064Z,16.70
2023-05-10T00:51:01.507Z,17.83
2023-05-10T00:53:29.936Z,18.40
2023-05-10T00:55:58.425Z,17.70
2023-05-10T00:58:29.196Z,16.07
2023-05-10T01:00:58.118Z,14.63
2023-05-10T01:03:27.489Z,13.93
2023-05-10T01:05:56.203Z,13.73
2023-05-10T01:08:24.492Z,13.33
2023-05-10T01:10:53.599Z,14.17
2023-05-10T01:13:35.543Z,14.13
2023-05-10T01:16:04.343Z,12.00
2023-05-10T01:18:33.911Z,13.77
2023-05-10T01:21:17.107Z,14.40
2023-05-10T01:24:20.637Z,15.37
2023-05-10T01:27:24.596Z,13.40
2023-05-10T01:30:16.156Z,14.27
2023-05-10T01:32:52.478Z,13.83
2023-05-10T01:35:28.971Z,13.63
2023-05-10T01:38:11.658Z,13.03
2023-05-10T01:40:44.664Z,13.30
2023-05-10T01:43:21.039Z,13.50
2023-05-10T01:45:58.628Z,14.93
2023-05-10T01:48:30.748Z,14.37
2023-05-10T01:51:00.053Z,14.50
2023-05-10T01:53:29.466Z,13.47
2023-05-10T01:55:58.169Z,13.97
2023-05-10T01:58:29.989Z,13.53
2023-05-10T02:00:59.335Z,14.43
2023-05-10T02:03:30.237Z,13.60
2023-05-10T02:05:59.592Z,12.73
2023-05-10T02:08:28.463Z,13.23
2023-05-10T02:10:58.952Z,14.47
2023-05-10T02:13:29.469Z,14.53
2023-05-10T02:15:58.809Z,15.10
2023-05-10T02:18:31.177Z,16.60
2023-05-10T02:21:01.782Z,16.83
2023-05-10T02:23:31.365Z,18.13
2023-05-10T02:26:00.012Z,19.17
2023-05-10T02:28:29.054Z,19.37
2023-05-10T02:30:58.166Z,22.27
2023-05-10T02:33:27.195Z,22.87
2023-05-10T02:35:57.892Z,22.67
2023-05-10T02:38:27.872Z,22.13
2023-05-10T02:40:57.700Z,22.43
2023-05-10T02:43:26.241Z,22.20
2023-05-10T02:45:54.914Z,22.43
2023-05-10T02:48:23.372Z,20.63
2023-05-10T02:50:54.445Z,21.93
2023-05-10T02:53:30.756Z,24.37
2023-05-10T02:56:04.822Z,21.37
2023-05-10T02:58:33.142Z,21.77
2023-05-10T03:01:02.357Z,21.07
2023-05-10T03:03:30.525Z,19.63
2023-05-10T03:05:59.556Z,16.37
2023-05-10T03:08:30.326Z,14.90
2023-05-10T03:11:18.794Z,13.17
2023-05-10T03:13:56.282Z,12.93
2023-05-10T03:16:29.296Z,11.70
2023-05-10T03:19:08.709Z,12.47
2023-05-10T03:21:41.027Z,11.47
2023-05-10T03:24:15.791Z,13.13
2023-05-10T03:26:46.567Z,11.33
2023-05-10T03:29:16.570Z,11.03
2023-05-10T03:31:45.190Z,12.03
2023-05-10T03:34:13.606Z,11.40
2023-05-10T03:36:41.932Z,11.27
2023-05-10T03:39:11.727Z,12.40
2023-05-10T03:41:40.083Z,11.87
2023-05-10T03:44:08.433Z,11.93
2023-05-10T03:46:36.922Z,12.17
2023-05-10T03:49:05.383Z,11.23
2023-05-10T03:51:33.839Z,11.80
2023-05-10T03:54:02.137Z,11.73
2023-05-10T03:56:31.652Z,11.93
2023-05-10T03:59:00.054Z,10.93
2023-05-10T04:01:28.626Z,11.40
2023-05-10T04:03:57.093Z,10.67
2023-05-10T04:06:25.665Z,11.33
2023-05-10T04:08:54.763Z,10.63
2023-05-10T04:11:23.632Z,10.00
2023-05-10T04:13:53.270Z,11.87
2023-05-10T04:16:21.594Z,11.20
2023-05-10T04:18:50.181Z,11.27
2023-05-10T04:21:18.478Z,11.13
2023-05-10T04:23:46.839Z,11.03
2023-05-10T04:26:15.454Z,11.93
2023-05-10T04:28:43.772Z,11.40
2023-05-10T04:31:13.309Z,10.70
2023-05-10T04:33:41.652Z,11.03
2023-05-10T04:36:10.382Z,10.40
2023-05-10T04:38:38.828Z,10.63
2023-05-10T04:41:08.158Z,11.83
2023-05-10T04:43:37.124Z,11.00
2023-05-10T04:46:05.796Z,11.53
2023-05-10T04:48:35.564Z,11.80
2023-05-10T04:51:04.982Z,12.47
2023-05-10T04:53:33.363Z,12.33
2023-05-10T04:56:01.669Z,12.73
2023-05-10T04:58:30.063Z,11.63
2023-05-10T05:00:58.358Z,11.17
2023-05-10T05:03:26.909Z,12.97
2023-05-10T05:05:56.402Z,13.20
2023-05-10T05:08:25.029Z,11.83
2023-05-10T05:10:53.440Z,13.97
2023-05-10T05:13:21.909Z,13.33
2023-05-10T05:15:50.734Z,14.33
2023-05-10T05:18:19.213Z,13.90
2023-05-10T05:20:47.825Z,14.73
2023-05-10T05:23:17.514Z,15.23
2023-05-10T05:25:45.829Z,13.63
2023-05-10T05:28:14.251Z,15.70
2023-05-10T05:30:42.634Z,15.80
2023-05-10T05:33:10.741Z,17.57
2023-05-10T05:35:38.823Z,18.70
2023-05-10T05:38:07.404Z,19.37
2023-05-10T05:40:37.247Z,17.43
2023-05-10T05:43:05.264Z,18.73
2023-05-10T05:45:33.694Z,17.87
2023-05-10T05:48:02.230Z,19.03
2023-05-10T05:50:30.590Z,19.93
2023-05-10T05:52:58.750Z,17.50
2023-05-10T05:55:27.809Z,19.80
2023-05-10T05:57:57.279Z,18.00
2023-05-10T06:00:25.787Z,20.40
2023-05-10T06:02:54.117Z,20.37
2023-05-10T06:05:22.386Z,18.80
2023-05-10T06:07:50.786Z,20.83
2023-05-10T06:10:19.295Z,22.17
2023-05-10T06:12:47.299Z,19.53
2023-05-10T06:15:17.801Z,17.53
2023-05-10T06:17:48.182Z,19.47
2023-05-10T06:20:16.492Z,19.97
2023-05-10T06:22:45.004Z,20.27
2023-05-10T06:25:13.432Z,20.73
2023-05-10T06:27:41.779Z,20.00
2023-05-10T06:30:13.309Z,27.63
2023-05-10T06:32:44.773Z,22.03
2023-05-10T06:35:13.134Z,32.17
2023-05-10T06:37:41.461Z,27.63
2023-05-10T06:40:10.437Z,29.47
2023-05-10T06:42:38.937Z,25.70
2023-05-10T06:45:08.066Z,25.17
2023-05-10T06:47:38.659Z,25.47
2023-05-10T06:50:09.716Z,26.20
2023-05-10T06:52:37.946Z,28.10
2023-05-10T06:55:06.863Z,31.67
2023-05-10T06:57:35.173Z,33.00
2023-05-10T07:00:05.070Z,28.90
2023-05-10T07:02:33.287Z,28.77
2023-05-10T07:05:15.404Z,27.67
2023-05-10T07:07:44.909Z,33.30
2023-05-10T07:10:12.972Z,34.97
2023-05-10T07:12:41.055Z,36.00
2023-05-10T07:15:10.845Z,36.93
2023-05-10T07:17:39.179Z,42.00
2023-05-10T07:20:08.870Z,37.13
2023-05-10T07:22:37.180Z,47.53
2023-05-10T07:25:07.965Z,45.60
2023-05-10T07:27:36.330Z,44.27
2023-05-10T07:30:04.537Z,44.00
2023-05-10T07:32:32.767Z,45.70
2023-05-10T07:35:01.253Z,52.10
2023-05-10T07:37:29.335Z,48.03
2023-05-10T07:39:57.588Z,43.53
2023-05-10T07:42:27.031Z,45.43
2023-05-10T07:44:55.357Z,51.10
2023-05-10T07:47:23.489Z,49.37
2023-05-10T07:49:51.955Z,42.53
2023-05-10T07:52:22.435Z,44.53
2023-05-10T07:54:50.738Z,53.38
2023-05-10T07:57:19.077Z,59.72
2023-05-10T07:59:48.536Z,52.33
2023-05-10T08:02:16.565Z,56.38
2023-05-10T08:04:44.906Z,55.03
2023-05-10T08:07:13.290Z,68.47
2023-05-10T08:09:41.611Z,58.97
2023-05-10T08:12:10.054Z,50.70
2023-05-10T08:14:38.658Z,52.78
2023-05-10T08:17:08.187Z,48.75
2023-05-10T08:19:36.307Z,39.63
2023-05-10T08:22:04.651Z,42.20
2023-05-10T08:24:32.654Z,35.92
2023-05-10T08:27:01.001Z,40.55
2023-05-10T08:29:32.789Z,32.72
2023-05-10T08:32:03.775Z,34.95
2023-05-10T08:34:33.367Z,39.25
2023-05-10T08:37:01.407Z,38.45
2023-05-10T08:39:30.672Z,38.97
2023-05-10T08:42:04.362Z,35.80
2023-05-10T08:44:34.478Z,38.00
2023-05-10T08:47:07.060Z,38.47
2023-05-10T08:49:36.688Z,36.72
2023-05-10T08:52:06.391Z,30.20
2023-05-10T08:54:35.271Z,31.13
2023-05-10T08:57:04.154Z,34.97
2023-05-10T08:59:32.917Z,34.05
2023-05-10T09:02:01.296Z,31.20
2023-05-10T09:04:30.115Z,39.38
2023-05-10T09:06:59.839Z,40.08
2023-05-10T09:09:29.253Z,38.83
2023-05-10T09:11:57.952Z,40.90
2023-05-10T09:14:26.927Z,37.80
2023-05-10T09:16:56.213Z,37.55
2023-05-10T09:19:24.334Z,34.33
2023-05-10T09:21:52.671Z,31.65
2023-05-10T09:24:27.358Z,36.17
2023-05-10T09:26:55.390Z,33.15
2023-05-10T09:29:24.712Z,31.55
2023-05-10T09:31:55.718Z,31.42
2023-05-10T09:34:31.630Z,33.35
2023-05-10T09:37:03.701Z,35.13
2023-05-10T09:39:34.794Z,31.42
2023-05-10T09:42:05.716Z,34.00
2023-05-10T09:44:34.566Z,28.08
2023-05-10T09:47:02.962Z,27.15
2023-05-10T09:49:31.371Z,28.38
2023-05-10T09:52:04.514Z,26.10
2023-05-10T09:54:34.267Z,25.77
2023-05-10T09:57:02.463Z,22.13
2023-05-10T09:59:31.492Z,26.48
2023-05-10T10:02:01.516Z,24.33
2023-05-10T10:04:30.215Z,25.05
2023-05-10T10:07:03.546Z,24.50
2023-05-10T10:09:33.436Z,27.35
2023-05-10T10:12:01.888Z,28.30
2023-05-10T10:14:30.496Z,33.80
2023-05-10T10:19:30.059Z,27.80
2023-05-10T10:21:58.216Z,29.95
2023-05-10T10:24:26.524Z,34.15
2023-05-10T10:27:03.248Z,35.42
2023-05-10T10:29:38.900Z,33.55
2023-05-10T10:32:14.205Z,36.22
2023-05-10T10:34:42.817Z,33.60
2023-05-10T10:37:10.796Z,31.48
2023-05-10T10:39:38.778Z,29.92
2023-05-10T10:42:08.250Z,33.20
2023-05-10T10:44:40.118Z,27.00
2023-05-10T10:47:30.016Z,29.55
2023-05-10T10:50:08.556Z,32.55
2023-05-10T10:52:39.891Z,34.50
2023-05-10T10:55:09.379Z,34.63
2023-05-10T10:57:50.731Z,30.70
2023-05-10T11:00:27.093Z,33.25
2023-05-10T11:02:57.182Z,31.52
2023-05-10T11:05:37.137Z,35.92
2023-05-10T11:08:21.144Z,31.00
2023-05-10T11:11:08.824Z,32.80
2023-05-10T11:13:41.808Z,34.50
2023-05-10T11:16:20.465Z,33.03
2023-05-10T11:18:56.217Z,30.73
2023-05-10T11:21:25.471Z,28.92
2023-05-10T11:23:57.174Z,32.03
2023-05-10T11:26:27.046Z,28.65
2023-05-10T11:29:01.666Z,24.80
2023-05-10T11:31:31.025Z,23.40
2023-05-10T11:34:00.738Z,25.27
2023-05-10T11:36:30.130Z,20.80
2023-05-10T11:38:59.017Z,25.80
2023-05-10T11:41:29.932Z,22.92
2023-05-10T11:44:00.444Z,20.67
2023-05-10T11:46:30.455Z,21.00
2023-05-10T11:49:02.550Z,19.27
2023-05-10T11:51:31.169Z,19.13
2023-05-10T11:53:59.611Z,20.58
2023-05-10T11:56:28.191Z,16.10
2023-05-10T11:58:57.640Z,16.30
2023-05-10T12:01:28.280Z,16.50
2023-05-10T12:04:01.136Z,19.40
2023-05-10T12:06:32.776Z,18.08
2023-05-10T12:09:01.443Z,19.00
2023-05-10T12:11:30.812Z,19.05
2023-05-10T12:13:59.818Z,21.05
2023-05-10T12:16:31.582Z,21.13
2023-05-10T12:19:01.255Z,22.08
2023-05-10T12:21:31.380Z,21.88
2023-05-10T12:24:03.325Z,24.65
2023-05-10T12:26:31.869Z,26.70
2023-05-10T12:29:15.195Z,24.02
2023-05-10T12:31:56.197Z,27.10
2023-05-10T12:34:28.254Z,22.25
2023-05-10T12:36:56.869Z,27.58
2023-05-10T12:39:25.306Z,26.95
2023-05-10T12:41:53.587Z,27.25
2023-05-10T12:44:21.567Z,22.50
2023-05-10T12:46:49.755Z,24.40
2023-05-10T12:49:19.973Z,33.03
2023-05-10T12:51:48.358Z,25.33
2023-05-10T12:54:16.626Z,27.05
2023-05-10T12:56:45.176Z,29.58
2023-05-10T12:59:13.204Z,29.35
2023-05-10T13:01:41.378Z,28.38
2023-05-10T13:04:09.752Z,31.08
2023-05-10T13:06:39.249Z,26.38
2023-05-10T13:09:07.377Z,25.60
2023-05-10T13:11:35.497Z,23.90
2023-05-10T13:14:04.215Z,26.40
2023-05-10T13:16:32.294Z,23.83
2023-05-10T13:19:00.535Z,25.20
2023-05-10T13:21:28.927Z,24.70
2023-05-10T13:23:58.923Z,27.67
2023-05-10T13:26:27.437Z,31.48
2023-05-10T13:28:56.602Z,25.52
2023-05-10T13:31:24.713Z,26.23
2023-05-10T13:33:52.909Z,22.92
2023-05-10T13:36:21.269Z,25.77
2023-05-10T13:38:49.547Z,24.20
2023-05-10T13:41:18.948Z,22.55
2023-05-10T13:43:46.933Z,18.50
2023-05-10T13:46:15.288Z,18.23
2023-05-10T13:48:43.586Z,17.95
2023-05-10T13:51:11.903Z,21.65
2023-05-10T13:53:40.311Z,20.83
2023-05-10T13:56:09.034Z,22.30
2023-05-10T13:58:38.471Z,17.83
2023-05-10T14:01:06.862Z,19.08
2023-05-10T14:03:35.242Z,25.30
2023-05-10T14:06:03.581Z,20.00
2023-05-10T14:08:32.008Z,18.65
2023-05-10T14:11:00.332Z,20.52
2023-05-10T14:13:28.549Z,22.70
2023-05-10T14:15:58.011Z,20.10
2023-05-10T14:18:26.876Z,20.98
2023-05-10T14:20:55.635Z,19.58
2023-05-10T14:23:25.733Z,19.48
2023-05-10T14:25:54.404Z,18.52
2023-05-10T14:28:23.685Z,17.65
2023-05-10T14:30:52.881Z,20.80
2023-05-10T14:33:22.894Z,16.95
2023-05-10T14:35:51.246Z,18.08
2023-05-10T14:38:19.252Z,17.38
2023-05-10T14:40:48.024Z,19.52
2023-05-10T14:43:16.126Z,16.67
2023-05-10T14:45:44.635Z,19.02
2023-05-10T14:48:16.428Z,17.58
2023-05-10T14:50:46.030Z,15.88
2023-05-10T14:53:14.464Z,17.20
2023-05-10T14:55:42.822Z,15.70
2023-05-10T14:58:11.397Z,16.02
2023-05-10T15:00:39.712Z,14.95
2023-05-10T15:03:08.280Z,14.93
2023-05-10T15:05:38.351Z,14.32
2023-05-10T15:08:07.922Z,16.85
2023-05-10T15:10:36.318Z,14.27
2023-05-10T15:13:05.359Z,14.88
2023-05-10T15:15:33.496Z,14.48
2023-05-10T15:18:01.598Z,14.57
2023-05-10T15:20:29.704Z,15.82
2023-05-10T15:22:58.158Z,15.85
2023-05-10T15:25:28.690Z,15.32
2023-05-10T15:27:57.152Z,14.75
2023-05-10T15:30:25.447Z,16.90
2023-05-10T15:32:53.555Z,15.20
2023-05-10T15:35:21.659Z,15.25
2023-05-10T15:37:50.428Z,16.83
2023-05-10T15:40:18.659Z,17.40
2023-05-10T15:42:48.040Z,18.08
2023-05-10T15:45:17.452Z,16.77
2023-05-10T15:47:46.338Z,17.83
2023-05-10T15:50:16.834Z,19.20
2023-05-10T15:52:45.153Z,16.63
2023-05-10T15:55:13.704Z,19.90
2023-05-10T15:57:42.467Z,18.23
2023-05-10T16:00:13.948Z,15.43
2023-05-10T16:02:42.514Z,17.90
2023-05-10T16:05:11.460Z,17.30
2023-05-10T16:07:40.268Z,17.80
2023-05-10T16:10:10.361Z,23.05
2023-05-10T16:12:38.922Z,17.20
2023-05-10T16:15:08.182Z,17.88
2023-05-10T16:17:39.693Z,17.77
2023-05-10T16:20:09.305Z,18.00
2023-05-10T16:22:37.694Z,17.15
2023-05-10T16:25:06.934Z,16.50
2023-05-10T16:27:35.133Z,18.05
2023-05-10T16:30:03.339Z,17.08
2023-05-10T16:32:31.441Z,16.65
2023-05-10T16:35:01.672Z,16.55
2023-05-10T16:37:29.763Z,15.95
2023-05-10T16:39:57.831Z,15.82
2023-05-10T16:42:26.153Z,15.95
2023-05-10T16:44:55.272Z,14.95
2023-05-10T16:47:23.319Z,15.70
2023-05-10T16:49:51.871Z,14.80
2023-05-10T16:52:21.927Z,14.68
2023-05-10T16:54:49.905Z,21.60
2023-05-10T16:57:18.310Z,16.38
2023-05-10T16:59:46.318Z,17.20
2023-05-10T17:02:14.760Z,15.10
2023-05-10T17:04:44.224Z,16.60
2023-05-10T17:07:13.232Z,16.10
2023-05-10T17:09:44.012Z,13.65
2023-05-10T17:12:12.280Z,14.63
2023-05-10T17:14:40.955Z,13.48
2023-05-10T17:17:09.057Z,13.95
2023-05-10T17:19:37.094Z,16.00
2023-05-10T17:22:05.146Z,16.70
2023-05-10T17:24:33.292Z,15.73
2023-05-10T17:27:03.559Z,13.85
2023-05-10T17:29:32.143Z,15.82
2023-05-10T17:32:00.201Z,15.98
2023-05-10T17:34:28.544Z,15.35
2023-05-10T17:36:57.440Z,16.55
2023-05-10T17:39:25.429Z,15.07
2023-05-10T17:41:53.825Z,14.68
2023-05-10T17:44:24.874Z,16.77
2023-05-10T17:46:52.923Z,17.52
2023-05-10T17:49:20.925Z,17.75
2023-05-10T17:51:49.231Z,17.55
2023-05-10T17:54:17.939Z,18.58
2023-05-10T17:56:46.532Z,17.75
2023-05-10T17:59:14.628Z,15.02
2023-05-10T18:01:44.276Z,17.08
2023-05-10T18:04:12.678Z,19.83
2023-05-10T18:06:41.563Z,16.00
2023-05-10T18:09:09.632Z,14.80
2023-05-10T18:11:38.777Z,14.50
2023-05-10T18:14:07.024Z,15.73
2023-05-10T18:16:35.430Z,13.43
2023-05-10T18:19:04.908Z,14.48
2023-05-10T18:21:33.068Z,11.63
2023-05-10T18:24:01.808Z,10.88
2023-05-10T18:26:29.927Z,10.85
2023-05-10T18:28:59.427Z,12.98
2023-05-10T18:31:29.615Z,11.57
2023-05-10T18:33:57.640Z,12.38
2023-05-10T18:36:27.518Z,12.18
2023-05-10T18:38:55.985Z,10.80
2023-05-10T18:41:26.738Z,11.32
2023-05-10T18:43:54.771Z,11.48
2023-05-10T18:46:22.816Z,10.18
2023-05-10T18:48:51.268Z,10.90
2023-05-10T18:51:20.322Z,11.48
2023-05-10T18:53:49.845Z,10.10
2023-05-10T18:56:17.919Z,11.02
2023-05-10T18:58:46.113Z,9.68
2023-05-10T19:01:14.221Z,9.85
2023-05-10T19:03:42.584Z,9.35
2023-05-10T19:06:10.879Z,10.15
2023-05-10T19:08:38.874Z,9.05
2023-05-10T19:11:08.340Z,10.05
2023-05-10T19:13:36.535Z,11.32
2023-05-10T19:16:06.505Z,9.80
2023-05-10T19:18:34.854Z,11.05
2023-05-10T19:21:04.783Z,11.02
2023-05-10T19:23:33.689Z,12.00
2023-05-10T19:26:02.373Z,11.38
2023-05-10T19:28:32.001Z,12.35
2023-05-10T19:30:59.996Z,12.97
2023-05-10T19:33:28.174Z,13.37
2023-05-10T19:35:56.794Z,15.13
2023-05-10T19:38:25.519Z,14.27
2023-05-10T19:40:58.061Z,13.07
2023-05-10T19:43:26.813Z,13.77
2023-05-10T19:45:59.135Z,13.20
2023-05-10T19:48:27.365Z,14.27
2023-05-10T19:50:55.798Z,14.15
2023-05-10T19:53:23.878Z,18.00
2023-05-10T19:55:52.212Z,14.57
2023-05-10T19:58:20.601Z,15.00
2023-05-10T20:00:48.962Z,14.43
2023-05-10T20:03:18.722Z,14.50
2023-05-10T20:05:47.392Z,14.25
2023-05-10T20:08:16.224Z,19.03
2023-05-10T20:10:44.311Z,16.57
2023-05-10T20:13:12.630Z,16.17
2023-05-10T20:15:40.983Z,15.10
2023-05-10T20:18:08.983Z,19.20
2023-05-10T20:20:38.434Z,17.73
2023-05-10T20:23:06.429Z,16.47
2023-05-10T20:25:34.482Z,16.20
2023-05-10T20:28:02.528Z,16.87
2023-05-10T20:30:31.065Z,16.77
2023-05-10T20:32:59.187Z,18.67
2023-05-10T20:35:27.555Z,19.37
2023-05-10T20:37:56.929Z,20.60
2023-05-10T20:40:25.096Z,22.40
2023-05-10T20:42:54.096Z,18.08
2023-05-10T20:45:22.228Z,17.57
2023-05-10T20:47:50.582Z,18.63
2023-05-10T20:50:19.123Z,19.80
2023-05-10T20:52:47.359Z,18.48
2023-05-10T20:55:16.779Z,22.15
2023-05-10T20:57:45.161Z,18.77
2023-05-10T21:00:14.457Z,17.13
2023-05-10T21:02:44.508Z,20.80
2023-05-10T21:05:12.974Z,19.85
2023-05-10T21:07:41.321Z,17.55
2023-05-10T21:10:11.894Z,17.45
2023-05-10T21:12:41.302Z,20.15
2023-05-10T21:15:10.433Z,21.63
2023-05-10T21:17:38.749Z,17.83
2023-05-10T21:20:08.175Z,19.30
2023-05-10T21:22:36.160Z,19.83
2023-05-10T21:25:04.210Z,22.67
2023-05-10T21:27:32.547Z,23.98
2023-05-10T21:30:02.295Z,23.43
2023-05-10T21:32:30.728Z,23.47
2023-05-10T21:34:59.139Z,24.80
2023-05-10T21:37:27.170Z,19.60
2023-05-10T21:39:55.157Z,19.77
2023-05-10T21:42:23.171Z,24.77
2023-05-10T21:44:51.189Z,22.53
2023-05-10T21:47:20.604Z,24.73
2023-05-10T21:49:50.468Z,25.77
2023-05-10T21:52:18.454Z,19.88
2023-05-10T21:54:46.742Z,27.08
2023-05-10T21:57:15.132Z,21.80
2023-05-10T21:59:43.422Z,21.30
2023-05-10T22:02:11.488Z,29.15
2023-05-10T22:04:41.085Z,27.95
2023-05-10T22:07:09.158Z,19.73
2023-05-10T22:09:37.157Z,25.08
2023-05-10T22:12:05.879Z,24.73
2023-05-10T22:14:34.174Z,20.48
2023-05-10T22:17:02.332Z,26.05
2023-05-10T22:19:30.794Z,25.20
2023-05-10T22:22:00.226Z,24.55
2023-05-10T22:24:28.732Z,24.17
2023-05-10T22:26:57.052Z,23.93
2023-05-10T22:29:25.136Z,22.33
2023-05-10T22:31:53.565Z,22.77
2023-05-10T22:34:21.609Z,24.38
2023-05-10T22:36:50.547Z,29.97
2023-05-10T22:39:19.909Z,27.17
2023-05-10T22:41:47.984Z,31.97
2023-05-10T22:44:16.306Z,30.70
2023-05-10T22:46:44.638Z,33.70
2023-05-10T22:49:12.688Z,28.23
2023-05-10T22:51:41.006Z,30.20
2023-05-10T22:54:09.033Z,34.90
2023-05-10T22:56:38.516Z,28.53
2023-05-10T22:59:06.846Z,29.10
2023-05-10T23:01:35.094Z,32.50
2023-05-10T23:04:03.413Z,28.90
2023-05-10T23:06:33.129Z,32.07
2023-05-10T23:09:01.149Z,33.10
2023-05-10T23:11:29.548Z,37.60
2023-05-10T23:13:58.913Z,36.42
2023-05-10T23:16:26.986Z,39.63
2023-05-10T23:18:55.434Z,32.90
2023-05-10T23:21:25.223Z,34.27
2023-05-10T23:23:54.462Z,32.37
2023-05-10T23:26:22.803Z,34.35
2023-05-10T23:28:51.232Z,32.92
2023-05-10T23:31:20.692Z,35.53
2023-05-10T23:33:48.760Z,39.10
2023-05-10T23:36:16.800Z,38.20
2023-05-10T23:38:45.138Z,45.75
2023-05-10T23:41:13.533Z,40.93
2023-05-10T23:43:41.494Z,35.23
2023-05-10T23:46:09.536Z,40.13
2023-05-10T23:48:38.934Z,43.67
2023-05-10T23:51:06.979Z,38.47
2023-05-10T23:53:35.029Z,37.80
2023-05-10T23:56:03.181Z,34.92
2023-05-10T23:58:31.492Z,39.90
